sensor_id;sensor_type;location;lat;lon;timestamp;P1;durP1;ratioP1;P2;durP2;ratioP2
64885;SDS011;51514;52.206;5.114;2023-05-14T00:02:24;26.33;;;17.10;;
64885;SDS011;51514;52.206;5.114;2023-05-14T00:04:51;24.48;;;16.13;;
64885;SDS011;51514;52.206;5.114;2023-05-14T00:07:16;23.77;;;16.30;;
64885;SDS011;51514;52.206;5.114;2023-05-14T00:09:42;24.83;;;15.52;;
64885;SDS011;51514;52.206;5.114;2023-05-14T00:12:07;22.25;;;16.10;;
64885;SDS011;51514;52.206;5.114;2023-05-14T00:14:32;24.63;;;16.30;;
64885;SDS011;51514;52.206;5.114;2023-05-14T00:16:58;24.75;;;16.63;;
64885;SDS011;51514;52.206;5.114;2023-05-14T00:19:23;22.95;;;15.65;;
64885;SDS011;51514;52.206;5.114;2023-05-14T00:21:49;20.83;;;15.82;;
64885;SDS011;51514;52.206;5.114;2023-05-14T00:24:14;23.73;;;15.43;;
64885;SDS011;51514;52.206;5.114;2023-05-14T00:26:40;24.17;;;15.93;;
64885;SDS011;51514;52.206;5.114;2023-05-14T00:29:05;22.23;;;15.63;;
64885;SDS011;51514;52.206;5.114;2023-05-14T00:31:31;18.38;;;14.45;;
64885;SDS011;51514;52.206;5.114;2023-05-14T00:33:56;20.77;;;14.93;;
64885;SDS011;51514;52.206;5.114;2023-05-14T00:36:21;20.27;;;14.50;;
64885;SDS011;51514;52.206;5.114;2023-05-14T00:38:47;25.75;;;14.88;;
64885;SDS011;51514;52.206;5.114;2023-05-14T00:41:13;20.13;;;14.43;;
64885;SDS011;51514;52.206;5.114;2023-05-14T00:43:38;22.60;;;14.23;;
64885;SDS011;51514;52.206;5.114;2023-05-14T00:46:03;18.48;;;15.48;;
64885;SDS011;51514;52.206;5.114;2023-05-14T00:48:29;19.00;;;14.18;;
64885;SDS011;51514;52.206;5.114;2023-05-14T00:50:55;20.85;;;13.85;;
64885;SDS011;51514;52.206;5.114;2023-05-14T00:53:20;17.70;;;14.48;;
64885;SDS011;51514;52.206;5.114;2023-05-14T00:55:46;21.90;;;15.25;;
64885;SDS011;51514;52.206;5.114;2023-05-14T00:58:13;20.45;;;13.63;;
64885;SDS011;51514;52.206;5.114;2023-05-14T01:00:39;22.90;;;15.25;;
64885;SDS011;51514;52.206;5.114;2023-05-14T01:03:06;19.35;;;14.15;;
64885;SDS011;51514;52.206;5.114;2023-05-14T01:11:31;19.63;;;13.48;;
64885;SDS011;51514;52.206;5.114;2023-05-14T01:16:29;19.25;;;13.60;;
64885;SDS011;51514;52.206;5.114;2023-05-14T01:18:57;17.70;;;13.50;;
64885;SDS011;51514;52.206;5.114;2023-05-14T01:21:32;19.88;;;13.65;;
64885;SDS011;51514;52.206;5.114;2023-05-14T01:24:02;22.63;;;15.05;;
64885;SDS011;51514;52.206;5.114;2023-05-14T01:26:27;21.80;;;14.35;;
64885;SDS011;51514;52.206;5.114;2023-05-14T01:28:55;20.58;;;14.18;;
64885;SDS011;51514;52.206;5.114;2023-05-14T01:31:26;22.15;;;13.73;;
64885;SDS011;51514;52.206;5.114;2023-05-14T01:33:56;23.23;;;15.32;;
64885;SDS011;51514;52.206;5.114;2023-05-14T01:36:23;22.10;;;13.93;;
64885;SDS011;51514;52.206;5.114;2023-05-14T01:38:48;22.48;;;14.82;;
64885;SDS011;51514;52.206;5.114;2023-05-14T01:41:15;24.55;;;14.77;;
64885;SDS011;51514;52.206;5.114;2023-05-14T01:43:43;18.85;;;14.10;;
64885;SDS011;51514;52.206;5.114;2023-05-14T01:46:09;23.67;;;14.52;;
64885;SDS011;51514;52.206;5.114;2023-05-14T01:48:34;21.20;;;15.13;;
64885;SDS011;51514;52.206;5.114;2023-05-14T01:51:01;18.75;;;13.90;;
64885;SDS011;51514;52.206;5.114;2023-05-14T01:53:27;22.38;;;15.25;;
64885;SDS011;51514;52.206;5.114;2023-05-14T01:55:52;21.02;;;14.85;;
64885;SDS011;51514;52.206;5.114;2023-05-14T01:58:17;19.55;;;14.00;;
64885;SDS011;51514;52.206;5.114;2023-05-14T02:00:43;20.92;;;15.23;;
64885;SDS011;51514;52.206;5.114;2023-05-14T02:03:09;19.27;;;13.65;;
64885;SDS011;51514;52.206;5.114;2023-05-14T02:05:34;21.88;;;15.07;;
64885;SDS011;51514;52.206;5.114;2023-05-14T02:08:00;24.23;;;14.23;;
64885;SDS011;51514;52.206;5.114;2023-05-14T02:10:25;23.05;;;14.60;;
64885;SDS011;51514;52.206;5.114;2023-05-14T02:12:50;21.95;;;14.77;;
64885;SDS011;51514;52.206;5.114;2023-05-14T02:15:15;26.50;;;16.58;;
64885;SDS011;51514;52.206;5.114;2023-05-14T02:17:41;20.27;;;14.95;;
64885;SDS011;51514;52.206;5.114;2023-05-14T02:20:06;21.95;;;14.35;;
64885;SDS011;51514;52.206;5.114;2023-05-14T02:22:34;19.60;;;13.95;;
64885;SDS011;51514;52.206;5.114;2023-05-14T02:24:59;21.60;;;14.38;;
64885;SDS011;51514;52.206;5.114;2023-05-14T02:27:25;25.30;;;15.90;;
64885;SDS011;51514;52.206;5.114;2023-05-14T02:29:50;24.75;;;15.60;;
64885;SDS011;51514;52.206;5.114;2023-05-14T02:32:15;21.05;;;13.82;;
64885;SDS011;51514;52.206;5.114;2023-05-14T02:34:41;24.88;;;15.68;;
64885;SDS011;51514;52.206;5.114;2023-05-14T02:37:06;24.60;;;15.18;;
64885;SDS011;51514;52.206;5.114;2023-05-14T02:39:31;23.58;;;15.75;;
64885;SDS011;51514;52.206;5.114;2023-05-14T02:41:57;23.42;;;15.63;;
64885;SDS011;51514;52.206;5.114;2023-05-14T02:44:22;21.17;;;14.88;;
64885;SDS011;51514;52.206;5.114;2023-05-14T02:46:47;26.95;;;15.90;;
64885;SDS011;51514;52.206;5.114;2023-05-14T02:49:13;23.40;;;15.13;;
64885;SDS011;51514;52.206;5.114;2023-05-14T02:51:38;27.02;;;15.82;;
64885;SDS011;51514;52.206;5.114;2023-05-14T02:54:03;25.65;;;16.15;;
64885;SDS011;51514;52.206;5.114;2023-05-14T02:56:29;19.48;;;14.35;;
64885;SDS011;51514;52.206;5.114;2023-05-14T02:58:54;21.58;;;15.77;;
64885;SDS011;51514;52.206;5.114;2023-05-14T03:01:20;24.00;;;15.63;;
64885;SDS011;51514;52.206;5.114;2023-05-14T03:03:45;25.45;;;15.43;;
64885;SDS011;51514;52.206;5.114;2023-05-14T03:06:10;24.73;;;16.40;;
64885;SDS011;51514;52.206;5.114;2023-05-14T03:08:36;23.75;;;15.27;;
64885;SDS011;51514;52.206;5.114;2023-05-14T03:11:01;25.08;;;16.45;;
64885;SDS011;51514;52.206;5.114;2023-05-14T03:13:27;21.13;;;15.45;;
64885;SDS011;51514;52.206;5.114;2023-05-14T03:15:52;22.10;;;15.57;;
64885;SDS011;51514;52.206;5.114;2023-05-14T03:18:19;25.10;;;15.77;;
64885;SDS011;51514;52.206;5.114;2023-05-14T03:20:44;23.38;;;15.80;;
64885;SDS011;51514;52.206;5.114;2023-05-14T03:23:10;21.98;;;15.63;;
64885;SDS011;51514;52.206;5.114;2023-05-14T03:25:35;23.13;;;15.18;;
64885;SDS011;51514;52.206;5.114;2023-05-14T03:28:01;21.98;;;15.52;;
64885;SDS011;51514;52.206;5.114;2023-05-14T03:30:27;23.40;;;15.68;;
64885;SDS011;51514;52.206;5.114;2023-05-14T03:32:52;26.52;;;15.45;;
64885;SDS011;51514;52.206;5.114;2023-05-14T03:35:18;21.80;;;15.43;;
64885;SDS011;51514;52.206;5.114;2023-05-14T03:37:43;24.73;;;15.15;;
64885;SDS011;51514;52.206;5.114;2023-05-14T03:40:09;22.88;;;14.88;;
64885;SDS011;51514;52.206;5.114;2023-05-14T03:42:34;23.52;;;15.90;;
64885;SDS011;51514;52.206;5.114;2023-05-14T03:45:00;24.30;;;15.48;;
64885;SDS011;51514;52.206;5.114;2023-05-14T03:47:25;20.52;;;15.07;;
64885;SDS011;51514;52.206;5.114;2023-05-14T03:49:50;21.30;;;14.38;;
64885;SDS011;51514;52.206;5.114;2023-05-14T03:52:16;23.17;;;15.88;;
64885;SDS011;51514;52.206;5.114;2023-05-14T03:54:41;20.85;;;14.70;;
64885;SDS011;51514;52.206;5.114;2023-05-14T03:57:06;23.08;;;17.10;;
64885;SDS011;51514;52.206;5.114;2023-05-14T03:59:32;23.60;;;15.40;;
64885;SDS011;51514;52.206;5.114;2023-05-14T04:01:57;21.05;;;15.43;;
64885;SDS011;51514;52.206;5.114;2023-05-14T04:04:22;26.75;;;15.30;;
64885;SDS011;51514;52.206;5.114;2023-05-14T04:06:48;21.33;;;15.32;;
64885;SDS011;51514;52.206;5.114;2023-05-14T04:09:13;20.30;;;14.82;;
64885;SDS011;51514;52.206;5.114;2023-05-14T04:11:38;22.48;;;14.27;;
64885;SDS011;51514;52.206;5.114;2023-05-14T04:14:04;18.65;;;14.55;;
64885;SDS011;51514;52.206;5.114;2023-05-14T04:16:30;22.70;;;14.48;;
64885;SDS011;51514;52.206;5.114;2023-05-14T04:18:55;18.45;;;14.00;;
64885;SDS011;51514;52.206;5.114;2023-05-14T04:21:20;20.23;;;14.10;;
64885;SDS011;51514;52.206;5.114;2023-05-14T04:23:46;18.10;;;14.55;;
64885;SDS011;51514;52.206;5.114;2023-05-14T04:26:11;21.30;;;15.00;;
64885;SDS011;51514;52.206;5.114;2023-05-14T04:28:36;20.38;;;15.68;;
64885;SDS011;51514;52.206;5.114;2023-05-14T04:31:01;21.02;;;14.90;;
64885;SDS011;51514;52.206;5.114;2023-05-14T04:33:27;22.30;;;15.82;;
64885;SDS011;51514;52.206;5.114;2023-05-14T04:35:53;23.67;;;15.13;;
64885;SDS011;51514;52.206;5.114;2023-05-14T04:38:18;24.42;;;15.65;;
64885;SDS011;51514;52.206;5.114;2023-05-14T04:40:43;27.00;;;14.65;;
64885;SDS011;51514;52.206;5.114;2023-05-14T04:43:09;19.75;;;15.07;;
64885;SDS011;51514;52.206;5.114;2023-05-14T04:45:34;24.75;;;16.17;;
64885;SDS011;51514;52.206;5.114;2023-05-14T04:48:01;22.58;;;15.30;;
64885;SDS011;51514;52.206;5.114;2023-05-14T04:50:31;22.17;;;15.10;;
64885;SDS011;51514;52.206;5.114;2023-05-14T04:52:56;20.80;;;14.20;;
64885;SDS011;51514;52.206;5.114;2023-05-14T04:55:22;23.40;;;15.75;;
64885;SDS011;51514;52.206;5.114;2023-05-14T04:57:47;20.58;;;13.85;;
64885;SDS011;51514;52.206;5.114;2023-05-14T05:00:13;20.65;;;15.18;;
64885;SDS011;51514;52.206;5.114;2023-05-14T05:02:39;27.45;;;15.35;;
64885;SDS011;51514;52.206;5.114;2023-05-14T05:05:05;21.70;;;15.55;;
64885;SDS011;51514;52.206;5.114;2023-05-14T05:07:30;20.88;;;14.85;;
64885;SDS011;51514;52.206;5.114;2023-05-14T05:09:56;24.90;;;15.82;;
64885;SDS011;51514;52.206;5.114;2023-05-14T05:12:21;21.20;;;14.93;;
64885;SDS011;51514;52.206;5.114;2023-05-14T05:14:47;21.08;;;15.82;;
64885;SDS011;51514;52.206;5.114;2023-05-14T05:17:12;23.02;;;15.45;;
64885;SDS011;51514;52.206;5.114;2023-05-14T05:19:37;21.83;;;16.33;;
64885;SDS011;51514;52.206;5.114;2023-05-14T05:22:03;19.80;;;15.35;;
64885;SDS011;51514;52.206;5.114;2023-05-14T05:24:28;21.60;;;16.38;;
64885;SDS011;51514;52.206;5.114;2023-05-14T05:26:53;21.95;;;16.17;;
64885;SDS011;51514;52.206;5.114;2023-05-14T05:29:19;24.75;;;16.95;;
64885;SDS011;51514;52.206;5.114;2023-05-14T05:31:45;24.58;;;16.30;;
64885;SDS011;51514;52.206;5.114;2023-05-14T05:34:10;22.98;;;15.90;;
64885;SDS011;51514;52.206;5.114;2023-05-14T05:36:36;21.70;;;15.43;;
64885;SDS011;51514;52.206;5.114;2023-05-14T05:39:01;20.90;;;16.48;;
64885;SDS011;51514;52.206;5.114;2023-05-14T05:41:27;20.92;;;15.10;;
64885;SDS011;51514;52.206;5.114;2023-05-14T05:43:54;22.40;;;15.00;;
64885;SDS011;51514;52.206;5.114;2023-05-14T05:46:19;23.25;;;15.70;;
64885;SDS011;51514;52.206;5.114;2023-05-14T05:48:45;19.52;;;14.65;;
64885;SDS011;51514;52.206;5.114;2023-05-14T05:51:10;22.48;;;15.77;;
64885;SDS011;51514;52.206;5.114;2023-05-14T05:53:35;23.23;;;15.27;;
64885;SDS011;51514;52.206;5.114;2023-05-14T05:56:01;20.08;;;15.05;;
64885;SDS011;51514;52.206;5.114;2023-05-14T05:58:26;20.02;;;14.35;;
64885;SDS011;51514;52.206;5.114;2023-05-14T06:00:51;26.90;;;16.10;;
64885;SDS011;51514;52.206;5.114;2023-05-14T06:03:17;25.67;;;16.02;;
64885;SDS011;51514;52.206;5.114;2023-05-14T06:05:42;25.02;;;16.50;;
64885;SDS011;51514;52.206;5.114;2023-05-14T06:08:08;24.33;;;17.13;;
64885;SDS011;51514;52.206;5.114;2023-05-14T06:10:33;25.73;;;17.02;;
64885;SDS011;51514;52.206;5.114;2023-05-14T06:13:00;22.88;;;16.13;;
64885;SDS011;51514;52.206;5.114;2023-05-14T06:15:25;23.40;;;15.90;;
64885;SDS011;51514;52.206;5.114;2023-05-14T06:17:50;21.38;;;16.73;;
64885;SDS011;51514;52.206;5.114;2023-05-14T06:20:16;27.00;;;16.17;;
64885;SDS011;51514;52.206;5.114;2023-05-14T06:22:41;23.77;;;15.93;;
64885;SDS011;51514;52.206;5.114;2023-05-14T06:25:07;25.70;;;15.70;;
64885;SDS011;51514;52.206;5.114;2023-05-14T06:27:32;18.75;;;15.90;;
64885;SDS011;51514;52.206;5.114;2023-05-14T06:29:58;25.85;;;15.70;;
64885;SDS011;51514;52.206;5.114;2023-05-14T06:32:23;23.90;;;15.23;;
64885;SDS011;51514;52.206;5.114;2023-05-14T06:34:48;19.30;;;14.88;;
64885;SDS011;51514;52.206;5.114;2023-05-14T06:37:14;21.33;;;16.15;;
64885;SDS011;51514;52.206;5.114;2023-05-14T06:39:39;22.45;;;15.85;;
64885;SDS011;51514;52.206;5.114;2023-05-14T06:42:10;19.55;;;14.27;;
64885;SDS011;51514;52.206;5.114;2023-05-14T06:44:35;16.23;;;14.05;;
64885;SDS011;51514;52.206;5.114;2023-05-14T06:47:01;21.02;;;15.07;;
64885;SDS011;51514;52.206;5.114;2023-05-14T06:49:26;21.83;;;15.85;;
64885;SDS011;51514;52.206;5.114;2023-05-14T06:51:51;19.08;;;14.52;;
64885;SDS011;51514;52.206;5.114;2023-05-14T06:54:18;18.88;;;12.98;;
64885;SDS011;51514;52.206;5.114;2023-05-14T06:56:44;17.08;;;13.10;;
64885;SDS011;51514;52.206;5.114;2023-05-14T06:59:10;15.13;;;12.60;;
64885;SDS011;51514;52.206;5.114;2023-05-14T07:01:35;20.38;;;12.70;;
64885;SDS011;51514;52.206;5.114;2023-05-14T07:04:00;17.10;;;11.98;;
64885;SDS011;51514;52.206;5.114;2023-05-14T07:06:26;18.17;;;12.27;;
64885;SDS011;51514;52.206;5.114;2023-05-14T07:08:51;15.43;;;11.88;;
64885;SDS011;51514;52.206;5.114;2023-05-14T07:11:17;16.98;;;11.80;;
64885;SDS011;51514;52.206;5.114;2023-05-14T07:13:42;16.33;;;10.63;;
64885;SDS011;51514;52.206;5.114;2023-05-14T07:16:08;18.02;;;12.07;;
64885;SDS011;51514;52.206;5.114;2023-05-14T07:18:36;15.93;;;10.55;;
64885;SDS011;51514;52.206;5.114;2023-05-14T07:21:01;14.77;;;10.55;;
64885;SDS011;51514;52.206;5.114;2023-05-14T07:23:28;17.73;;;10.38;;
64885;SDS011;51514;52.206;5.114;2023-05-14T07:25:54;15.30;;;10.55;;
64885;SDS011;51514;52.206;5.114;2023-05-14T07:28:19;16.45;;;9.45;;
64885;SDS011;51514;52.206;5.114;2023-05-14T07:30:44;16.10;;;9.63;;
64885;SDS011;51514;52.206;5.114;2023-05-14T07:33:10;13.32;;;8.63;;
64885;SDS011;51514;52.206;5.114;2023-05-14T07:35:35;12.15;;;8.45;;
64885;SDS011;51514;52.206;5.114;2023-05-14T07:38:00;13.88;;;8.48;;
64885;SDS011;51514;52.206;5.114;2023-05-14T07:40:27;12.10;;;7.78;;
64885;SDS011;51514;52.206;5.114;2023-05-14T07:42:52;8.75;;;6.30;;
64885;SDS011;51514;52.206;5.114;2023-05-14T07:45:17;14.40;;;7.72;;
64885;SDS011;51514;52.206;5.114;2023-05-14T07:47:43;11.10;;;6.80;;
64885;SDS011;51514;52.206;5.114;2023-05-14T07:50:08;18.95;;;7.70;;
64885;SDS011;51514;52.206;5.114;2023-05-14T07:52:34;16.67;;;7.22;;
64885;SDS011;51514;52.206;5.114;2023-05-14T07:55:01;16.48;;;7.47;;
64885;SDS011;51514;52.206;5.114;2023-05-14T07:57:27;15.75;;;7.50;;
64885;SDS011;51514;52.206;5.114;2023-05-14T07:59:52;12.38;;;8.20;;
64885;SDS011;51514;52.206;5.114;2023-05-14T08:02:17;15.18;;;8.10;;
64885;SDS011;51514;52.206;5.114;2023-05-14T08:04:43;16.42;;;9.25;;
64885;SDS011;51514;52.206;5.114;2023-05-14T08:07:08;16.08;;;8.07;;
64885;SDS011;51514;52.206;5.114;2023-05-14T08:09:34;14.43;;;7.53;;
64885;SDS011;51514;52.206;5.114;2023-05-14T08:11:59;12.77;;;7.57;;
64885;SDS011;51514;52.206;5.114;2023-05-14T08:14:25;13.80;;;8.07;;
64885;SDS011;51514;52.206;5.114;2023-05-14T08:16:50;10.82;;;7.60;;
64885;SDS011;51514;52.206;5.114;2023-05-14T08:19:16;15.15;;;8.27;;
64885;SDS011;51514;52.206;5.114;2023-05-14T08:21:41;12.43;;;7.90;;
64885;SDS011;51514;52.206;5.114;2023-05-14T08:24:06;16.33;;;8.68;;
64885;SDS011;51514;52.206;5.114;2023-05-14T08:26:32;15.13;;;7.90;;
64885;SDS011;51514;52.206;5.114;2023-05-14T08:28:57;20.73;;;8.60;;
64885;SDS011;51514;52.206;5.114;2023-05-14T08:31:23;15.10;;;7.10;;
64885;SDS011;51514;52.206;5.114;2023-05-14T08:33:48;12.02;;;6.43;;
64885;SDS011;51514;52.206;5.114;2023-05-14T08:36:13;12.73;;;6.82;;
64885;SDS011;51514;52.206;5.114;2023-05-14T08:38:38;11.38;;;6.43;;
64885;SDS011;51514;52.206;5.114;2023-05-14T08:41:05;16.90;;;7.03;;
64885;SDS011;51514;52.206;5.114;2023-05-14T08:43:42;15.38;;;7.25;;
64885;SDS011;51514;52.206;5.114;2023-05-14T08:46:12;13.55;;;7.32;;
64885;SDS011;51514;52.206;5.114;2023-05-14T08:48:39;14.80;;;6.63;;
64885;SDS011;51514;52.206;5.114;2023-05-14T08:51:06;16.13;;;6.55;;
64885;SDS011;51514;52.206;5.114;2023-05-14T08:53:32;14.48;;;7.25;;
64885;SDS011;51514;52.206;5.114;2023-05-14T08:55:58;12.93;;;6.80;;
64885;SDS011;51514;52.206;5.114;2023-05-14T08:58:25;14.95;;;7.20;;
64885;SDS011;51514;52.206;5.114;2023-05-14T09:00:52;14.90;;;7.38;;
64885;SDS011;51514;52.206;5.114;2023-05-14T09:03:19;10.60;;;7.88;;
64885;SDS011;51514;52.206;5.114;2023-05-14T09:05:45;13.05;;;6.65;;
64885;SDS011;51514;52.206;5.114;2023-05-14T09:08:12;11.75;;;7.15;;
64885;SDS011;51514;52.206;5.114;2023-05-14T09:10:37;14.40;;;6.65;;
64885;SDS011;51514;52.206;5.114;2023-05-14T09:13:04;16.50;;;7.30;;
64885;SDS011;51514;52.206;5.114;2023-05-14T09:15:29;11.07;;;6.57;;
64885;SDS011;51514;52.206;5.114;2023-05-14T09:17:56;12.85;;;6.47;;
64885;SDS011;51514;52.206;5.114;2023-05-14T09:20:21;12.52;;;6.82;;
64885;SDS011;51514;52.206;5.114;2023-05-14T09:22:52;14.95;;;6.18;;
64885;SDS011;51514;52.206;5.114;2023-05-14T09:25:18;11.48;;;6.97;;
64885;SDS011;51514;52.206;5.114;2023-05-14T09:27:44;13.55;;;6.35;;
64885;SDS011;51514;52.206;5.114;2023-05-14T09:30:14;14.27;;;6.38;;
64885;SDS011;51514;52.206;5.114;2023-05-14T09:32:41;12.98;;;6.50;;
64885;SDS011;51514;52.206;5.114;2023-05-14T09:37:41;14.80;;;6.40;;
64885;SDS011;51514;52.206;5.114;2023-05-14T09:40:11;11.80;;;6.45;;
64885;SDS011;51514;52.206;5.114;2023-05-14T09:42:37;10.07;;;6.68;;
64885;SDS011;51514;52.206;5.114;2023-05-14T09:45:03;11.88;;;6.93;;
64885;SDS011;51514;52.206;5.114;2023-05-14T09:47:29;14.98;;;6.53;;
64885;SDS011;51514;52.206;5.114;2023-05-14T09:49:55;12.13;;;7.45;;
64885;SDS011;51514;52.206;5.114;2023-05-14T09:52:24;16.35;;;6.38;;
64885;SDS011;51514;52.206;5.114;2023-05-14T09:54:53;18.33;;;6.50;;
64885;SDS011;51514;52.206;5.114;2023-05-14T09:57:19;11.40;;;6.67;;
64885;SDS011;51514;52.206;5.114;2023-05-14T09:59:45;10.60;;;7.72;;
64885;SDS011;51514;52.206;5.114;2023-05-14T10:02:15;10.77;;;6.90;;
64885;SDS011;51514;52.206;5.114;2023-05-14T10:04:46;12.50;;;6.50;;
64885;SDS011;51514;52.206;5.114;2023-05-14T10:07:13;14.25;;;6.85;;
64885;SDS011;51514;52.206;5.114;2023-05-14T10:09:42;12.07;;;6.72;;
64885;SDS011;51514;52.206;5.114;2023-05-14T10:12:09;11.30;;;6.15;;
64885;SDS011;51514;52.206;5.114;2023-05-14T10:14:35;15.15;;;6.22;;
64885;SDS011;51514;52.206;5.114;2023-05-14T10:17:05;13.45;;;6.95;;
64885;SDS011;51514;52.206;5.114;2023-05-14T10:19:32;11.18;;;5.45;;
64885;SDS011;51514;52.206;5.114;2023-05-14T10:22:06;11.93;;;5.90;;
64885;SDS011;51514;52.206;5.114;2023-05-14T10:24:32;12.10;;;5.97;;
64885;SDS011;51514;52.206;5.114;2023-05-14T10:26:58;13.43;;;6.72;;
64885;SDS011;51514;52.206;5.114;2023-05-14T10:29:33;13.35;;;6.50;;
64885;SDS011;51514;52.206;5.114;2023-05-14T10:32:00;12.02;;;5.50;;
64885;SDS011;51514;52.206;5.114;2023-05-14T10:34:36;10.65;;;6.55;;
64885;SDS011;51514;52.206;5.114;2023-05-14T10:37:05;9.80;;;5.68;;
64885;SDS011;51514;52.206;5.114;2023-05-14T10:42:05;11.32;;;6.20;;
64885;SDS011;51514;52.206;5.114;2023-05-14T10:44:31;13.95;;;6.72;;
64885;SDS011;51514;52.206;5.114;2023-05-14T10:46:59;13.95;;;6.60;;
64885;SDS011;51514;52.206;5.114;2023-05-14T10:49:25;12.88;;;5.65;;
64885;SDS011;51514;52.206;5.114;2023-05-14T10:51:52;12.45;;;6.05;;
64885;SDS011;51514;52.206;5.114;2023-05-14T10:54:18;11.50;;;6.35;;
64885;SDS011;51514;52.206;5.114;2023-05-14T10:56:46;11.48;;;5.78;;
64885;SDS011;51514;52.206;5.114;2023-05-14T10:59:11;13.02;;;6.60;;
64885;SDS011;51514;52.206;5.114;2023-05-14T11:01:39;9.55;;;6.35;;
64885;SDS011;51514;52.206;5.114;2023-05-14T11:04:04;14.18;;;6.22;;
64885;SDS011;51514;52.206;5.114;2023-05-14T11:06:30;11.98;;;6.45;;
64885;SDS011;51514;52.206;5.114;2023-05-14T11:08:56;11.70;;;6.43;;
64885;SDS011;51514;52.206;5.114;2023-05-14T11:11:25;16.63;;;7.50;;
64885;SDS011;51514;52.206;5.114;2023-05-14T11:13:52;17.92;;;6.60;;
64885;SDS011;51514;52.206;5.114;2023-05-14T11:16:18;15.20;;;6.15;;
64885;SDS011;51514;52.206;5.114;2023-05-14T11:18:47;10.88;;;6.25;;
64885;SDS011;51514;52.206;5.114;2023-05-14T11:21:17;13.38;;;5.93;;
64885;SDS011;51514;52.206;5.114;2023-05-14T11:23:45;12.70;;;6.85;;
64885;SDS011;51514;52.206;5.114;2023-05-14T11:26:10;10.68;;;6.03;;
64885;SDS011;51514;52.206;5.114;2023-05-14T11:28:36;10.48;;;5.97;;
64885;SDS011;51514;52.206;5.114;2023-05-14T11:31:03;13.45;;;6.13;;
64885;SDS011;51514;52.206;5.114;2023-05-14T11:33:29;10.68;;;6.75;;
64885;SDS011;51514;52.206;5.114;2023-05-14T11:35:55;16.73;;;7.38;;
64885;SDS011;51514;52.206;5.114;2023-05-14T11:38:21;17.55;;;6.18;;
64885;SDS011;51514;52.206;5.114;2023-05-14T11:40:56;11.00;;;6.78;;
64885;SDS011;51514;52.206;5.114;2023-05-14T11:43:23;10.10;;;5.88;;
64885;SDS011;51514;52.206;5.114;2023-05-14T11:45:49;9.80;;;5.78;;
64885;SDS011;51514;52.206;5.114;2023-05-14T11:48:16;15.90;;;6.57;;
64885;SDS011;51514;52.206;5.114;2023-05-14T11:50:49;9.40;;;5.60;;
64885;SDS011;51514;52.206;5.114;2023-05-14T11:53:34;11.57;;;5.78;;
64885;SDS011;51514;52.206;5.114;2023-05-14T11:56:00;8.32;;;5.40;;
64885;SDS011;51514;52.206;5.114;2023-05-14T11:58:27;11.23;;;6.57;;
64885;SDS011;51514;52.206;5.114;2023-05-14T12:00:57;11.40;;;5.72;;
64885;SDS011;51514;52.206;5.114;2023-05-14T12:03:22;11.43;;;5.45;;
64885;SDS011;51514;52.206;5.114;2023-05-14T12:06:01;10.93;;;5.88;;
64885;SDS011;51514;52.206;5.114;2023-05-14T12:08:31;10.50;;;5.93;;
64885;SDS011;51514;52.206;5.114;2023-05-14T12:10:57;9.25;;;4.72;;
64885;SDS011;51514;52.206;5.114;2023-05-14T12:13:25;11.60;;;5.65;;
64885;SDS011;51514;52.206;5.114;2023-05-14T12:15:55;10.40;;;5.40;;
64885;SDS011;51514;52.206;5.114;2023-05-14T12:18:21;9.48;;;5.60;;
64885;SDS011;51514;52.206;5.114;2023-05-14T12:20:49;8.73;;;5.18;;
64885;SDS011;51514;52.206;5.114;2023-05-14T12:23:30;17.53;;;5.73;;
64885;SDS011;51514;52.206;5.114;2023-05-14T12:26:00;8.95;;;5.90;;
64885;SDS011;51514;52.206;5.114;2023-05-14T12:28:30;8.77;;;5.85;;
64885;SDS011;51514;52.206;5.114;2023-05-14T12:30:56;8.02;;;5.38;;
64885;SDS011;51514;52.206;5.114;2023-05-14T12:33:23;10.70;;;5.53;;
64885;SDS011;51514;52.206;5.114;2023-05-14T12:35:50;9.20;;;4.93;;
64885;SDS011;51514;52.206;5.114;2023-05-14T12:38:17;8.02;;;4.90;;
64885;SDS011;51514;52.206;5.114;2023-05-14T12:40:42;9.48;;;5.13;;
64885;SDS011;51514;52.206;5.114;2023-05-14T12:43:08;7.70;;;4.82;;
64885;SDS011;51514;52.206;5.114;2023-05-14T12:45:33;10.90;;;5.15;;
64885;SDS011;51514;52.206;5.114;2023-05-14T12:47:58;8.82;;;5.60;;
64885;SDS011;51514;52.206;5.114;2023-05-14T12:50:24;8.93;;;4.97;;
64885;SDS011;51514;52.206;5.114;2023-05-14T12:52:49;9.70;;;5.35;;
64885;SDS011;51514;52.206;5.114;2023-05-14T12:55:14;12.15;;;5.60;;
64885;SDS011;51514;52.206;5.114;2023-05-14T12:57:40;9.60;;;4.82;;
64885;SDS011;51514;52.206;5.114;2023-05-14T13:00:06;9.55;;;5.38;;
64885;SDS011;51514;52.206;5.114;2023-05-14T13:02:34;9.32;;;5.75;;
64885;SDS011;51514;52.206;5.114;2023-05-14T13:04:59;12.70;;;5.82;;
64885;SDS011;51514;52.206;5.114;2023-05-14T13:07:26;8.55;;;4.53;;
64885;SDS011;51514;52.206;5.114;2023-05-14T13:09:54;9.60;;;5.20;;
64885;SDS011;51514;52.206;5.114;2023-05-14T13:12:20;8.32;;;5.25;;
64885;SDS011;51514;52.206;5.114;2023-05-14T13:14:45;8.18;;;4.68;;
64885;SDS011;51514;52.206;5.114;2023-05-14T13:17:10;9.38;;;5.38;;
64885;SDS011;51514;52.206;5.114;2023-05-14T13:19:36;8.80;;;4.75;;
64885;SDS011;51514;52.206;5.114;2023-05-14T13:22:01;11.18;;;4.95;;
64885;SDS011;51514;52.206;5.114;2023-05-14T13:24:26;11.68;;;4.65;;
64885;SDS011;51514;52.206;5.114;2023-05-14T13:26:52;8.35;;;4.55;;
64885;SDS011;51514;52.206;5.114;2023-05-14T13:29:17;6.50;;;4.75;;
64885;SDS011;51514;52.206;5.114;2023-05-14T13:31:42;9.55;;;4.63;;
64885;SDS011;51514;52.206;5.114;2023-05-14T13:34:08;9.65;;;4.43;;
64885;SDS011;51514;52.206;5.114;2023-05-14T13:36:34;8.93;;;4.50;;
64885;SDS011;51514;52.206;5.114;2023-05-14T13:39:03;10.20;;;4.30;;
64885;SDS011;51514;52.206;5.114;2023-05-14T13:41:29;6.22;;;4.47;;
64885;SDS011;51514;52.206;5.114;2023-05-14T13:43:58;12.10;;;5.18;;
64885;SDS011;51514;52.206;5.114;2023-05-14T13:46:24;15.02;;;5.50;;
64885;SDS011;51514;52.206;5.114;2023-05-14T13:48:49;6.57;;;3.95;;
64885;SDS011;51514;52.206;5.114;2023-05-14T13:51:14;9.80;;;4.70;;
64885;SDS011;51514;52.206;5.114;2023-05-14T13:53:40;7.13;;;4.00;;
64885;SDS011;51514;52.206;5.114;2023-05-14T13:56:05;6.97;;;4.57;;
64885;SDS011;51514;52.206;5.114;2023-05-14T13:58:32;8.18;;;4.85;;
64885;SDS011;51514;52.206;5.114;2023-05-14T14:00:58;9.13;;;4.70;;
64885;SDS011;51514;52.206;5.114;2023-05-14T14:03:23;8.68;;;4.30;;
64885;SDS011;51514;52.206;5.114;2023-05-14T14:05:49;7.80;;;4.55;;
64885;SDS011;51514;52.206;5.114;2023-05-14T14:08:15;8.63;;;4.50;;
64885;SDS011;51514;52.206;5.114;2023-05-14T14:10:40;10.48;;;4.65;;
64885;SDS011;51514;52.206;5.114;2023-05-14T14:13:06;9.95;;;4.78;;
64885;SDS011;51514;52.206;5.114;2023-05-14T14:15:32;12.70;;;5.10;;
64885;SDS011;51514;52.206;5.114;2023-05-14T14:17:57;12.43;;;5.38;;
64885;SDS011;51514;52.206;5.114;2023-05-14T14:20:23;9.73;;;4.63;;
64885;SDS011;51514;52.206;5.114;2023-05-14T14:22:48;11.43;;;4.93;;
64885;SDS011;51514;52.206;5.114;2023-05-14T14:25:13;9.25;;;4.80;;
64885;SDS011;51514;52.206;5.114;2023-05-14T14:27:39;10.82;;;5.03;;
64885;SDS011;51514;52.206;5.114;2023-05-14T14:30:05;6.45;;;4.28;;
64885;SDS011;51514;52.206;5.114;2023-05-14T14:32:32;10.07;;;4.57;;
64885;SDS011;51514;52.206;5.114;2023-05-14T14:34:57;9.20;;;4.20;;
64885;SDS011;51514;52.206;5.114;2023-05-14T14:37:22;6.95;;;4.43;;
64885;SDS011;51514;52.206;5.114;2023-05-14T14:39:48;8.75;;;4.15;;